sensor_id;sensor_type;location;lat;lon;timestamp;P1;durP1;ratioP1;P2;durP2;ratioP2
67372;SDS011;54257;54.496;18.412;2023-03-23T00:00:27;13.10;;;11.20;;
67372;SDS011;54257;54.496;18.412;2023-03-23T00:03:13;12.10;;;10.60;;
67372;SDS011;54257;54.496;18.412;2023-03-23T00:05:57;15.20;;;12.00;;
67372;SDS011;54257;54.496;18.412;2023-03-23T00:08:54;14.80;;;10.90;;
67372;SDS011;54257;54.496;18.412;2023-03-23T00:11:28;15.40;;;10.30;;
67372;SDS011;54257;54.496;18.412;2023-03-23T00:14:06;12.80;;;10.60;;
67372;SDS011;54257;54.496;18.412;2023-03-23T00:16:44;17.50;;;11.40;;
67372;SDS011;54257;54.496;18.412;2023-03-23T00:19:17;13.80;;;10.50;;
67372;SDS011;54257;54.496;18.412;2023-03-23T00:21:48;14.40;;;11.00;;
67372;SDS011;54257;54.496;18.412;2023-03-23T00:24:31;13.70;;;10.80;;
67372;SDS011;54257;54.496;18.412;2023-03-23T00:27:08;14.80;;;11.50;;
67372;SDS011;54257;54.496;18.412;2023-03-23T00:29:41;14.00;;;9.90;;
67372;SDS011;54257;54.496;18.412;2023-03-23T00:32:15;16.90;;;11.20;;
67372;SDS011;54257;54.496;18.412;2023-03-23T00:34:51;14.90;;;12.20;;
67372;SDS011;54257;54.496;18.412;2023-03-23T00:37:26;15.20;;;12.00;;
67372;SDS011;54257;54.496;18.412;2023-03-23T00:40:08;16.80;;;12.50;;
67372;SDS011;54257;54.496;18.412;2023-03-23T00:42:43;17.70;;;12.80;;
67372;SDS011;54257;54.496;18.412;2023-03-23T00:45:18;14.70;;;12.60;;
67372;SDS011;54257;54.496;18.412;2023-03-23T00:48:01;15.30;;;12.10;;
67372;SDS011;54257;54.496;18.412;2023-03-23T00:50:34;15.00;;;11.60;;
67372;SDS011;54257;54.496;18.412;2023-03-23T00:53:17;13.20;;;11.10;;
67372;SDS011;54257;54.496;18.412;2023-03-23T00:55:53;14.80;;;10.90;;
67372;SDS011;54257;54.496;18.412;2023-03-23T00:58:29;13.70;;;11.40;;
67372;SDS011;54257;54.496;18.412;2023-03-23T01:01:06;11.90;;;10.10;;
67372;SDS011;54257;54.496;18.412;2023-03-23T01:03:37;13.20;;;10.40;;
67372;SDS011;54257;54.496;18.412;2023-03-23T01:06:08;14.20;;;9.90;;
67372;SDS011;54257;54.496;18.412;2023-03-23T01:08:42;11.10;;;9.10;;
67372;SDS011;54257;54.496;18.412;2023-03-23T01:11:15;12.10;;;9.30;;
67372;SDS011;54257;54.496;18.412;2023-03-23T01:13:50;10.80;;;9.20;;
67372;SDS011;54257;54.496;18.412;2023-03-23T01:16:21;10.40;;;8.20;;
67372;SDS011;54257;54.496;18.412;2023-03-23T01:18:55;11.60;;;8.40;;
67372;SDS011;54257;54.496;18.412;2023-03-23T01:21:24;9.70;;;7.90;;
67372;SDS011;54257;54.496;18.412;2023-03-23T01:23:59;12.00;;;8.40;;
67372;SDS011;54257;54.496;18.412;2023-03-23T01:26:37;10.40;;;7.50;;
67372;SDS011;54257;54.496;18.412;2023-03-23T01:29:06;10.90;;;8.00;;
67372;SDS011;54257;54.496;18.412;2023-03-23T01:31:55;9.30;;;7.70;;
67372;SDS011;54257;54.496;18.412;2023-03-23T01:34:24;12.00;;;8.30;;
67372;SDS011;54257;54.496;18.412;2023-03-23T01:37:03;12.40;;;8.90;;
67372;SDS011;54257;54.496;18.412;2023-03-23T01:39:43;11.60;;;8.30;;
67372;SDS011;54257;54.496;18.412;2023-03-23T01:42:20;13.60;;;9.80;;
67372;SDS011;54257;54.496;18.412;2023-03-23T01:47:49;12.20;;;9.60;;
67372;SDS011;54257;54.496;18.412;2023-03-23T01:50:25;11.00;;;8.20;;
67372;SDS011;54257;54.496;18.412;2023-03-23T01:52:59;10.20;;;8.50;;
67372;SDS011;54257;54.496;18.412;2023-03-23T01:55:39;13.50;;;9.40;;
67372;SDS011;54257;54.496;18.412;2023-03-23T01:58:31;13.70;;;8.90;;
67372;SDS011;54257;54.496;18.412;2023-03-23T02:01:10;11.10;;;8.10;;
67372;SDS011;54257;54.496;18.412;2023-03-23T02:03:49;9.00;;;8.10;;
67372;SDS011;54257;54.496;18.412;2023-03-23T02:06:27;10.20;;;7.70;;
67372;SDS011;54257;54.496;18.412;2023-03-23T02:09:06;10.70;;;7.80;;
67372;SDS011;54257;54.496;18.412;2023-03-23T02:11:41;10.40;;;7.80;;
67372;SDS011;54257;54.496;18.412;2023-03-23T02:14:12;10.10;;;8.10;;
67372;SDS011;54257;54.496;18.412;2023-03-23T02:16:54;10.20;;;8.10;;
67372;SDS011;54257;54.496;18.412;2023-03-23T02:25:44;12.80;;;8.30;;
67372;SDS011;54257;54.496;18.412;2023-03-23T02:33:56;9.30;;;6.80;;
67372;SDS011;54257;54.496;18.412;2023-03-23T02:36:56;8.40;;;6.80;;
67372;SDS011;54257;54.496;18.412;2023-03-23T02:42:13;9.40;;;7.70;;
67372;SDS011;54257;54.496;18.412;2023-03-23T02:44:50;10.30;;;7.50;;
67372;SDS011;54257;54.496;18.412;2023-03-23T02:47:44;9.90;;;7.10;;
67372;SDS011;54257;54.496;18.412;2023-03-23T02:50:18;10.70;;;8.00;;
67372;SDS011;54257;54.496;18.412;2023-03-23T02:53:10;9.30;;;7.30;;
67372;SDS011;54257;54.496;18.412;2023-03-23T02:55:44;8.30;;;7.00;;
67372;SDS011;54257;54.496;18.412;2023-03-23T02:58:24;8.90;;;7.40;;
67372;SDS011;54257;54.496;18.412;2023-03-23T03:00:53;12.00;;;6.90;;
67372;SDS011;54257;54.496;18.412;2023-03-23T03:03:29;9.20;;;7.80;;
67372;SDS011;54257;54.496;18.412;2023-03-23T03:06:16;11.20;;;7.30;;
67372;SDS011;54257;54.496;18.412;2023-03-23T03:09:27;8.50;;;7.60;;
67372;SDS011;54257;54.496;18.412;2023-03-23T03:12:12;9.40;;;6.70;;
67372;SDS011;54257;54.496;18.412;2023-03-23T03:15:20;10.00;;;7.50;;
67372;SDS011;54257;54.496;18.412;2023-03-23T03:18:07;8.70;;;7.60;;
67372;SDS011;54257;54.496;18.412;2023-03-23T03:20:50;9.80;;;7.60;;
67372;SDS011;54257;54.496;18.412;2023-03-23T03:23:22;13.40;;;7.80;;
67372;SDS011;54257;54.496;18.412;2023-03-23T03:25:56;9.10;;;6.80;;
67372;SDS011;54257;54.496;18.412;2023-03-23T03:28:44;11.10;;;7.50;;
67372;SDS011;54257;54.496;18.412;2023-03-23T03:31:30;8.20;;;6.50;;
67372;SDS011;54257;54.496;18.412;2023-03-23T03:34:08;8.50;;;6.70;;
67372;SDS011;54257;54.496;18.412;2023-03-23T03:36:36;9.60;;;7.50;;
67372;SDS011;54257;54.496;18.412;2023-03-23T03:39:13;10.40;;;7.50;;
67372;SDS011;54257;54.496;18.412;2023-03-23T03:41:48;10.90;;;7.50;;
67372;SDS011;54257;54.496;18.412;2023-03-23T03:44:18;10.00;;;7.30;;
67372;SDS011;54257;54.496;18.412;2023-03-23T03:46:54;8.30;;;7.40;;
67372;SDS011;54257;54.496;18.412;2023-03-23T03:49:23;10.50;;;8.30;;
67372;SDS011;54257;54.496;18.412;2023-03-23T03:51:59;10.70;;;7.90;;
67372;SDS011;54257;54.496;18.412;2023-03-23T03:54:36;9.50;;;7.80;;
67372;SDS011;54257;54.496;18.412;2023-03-23T03:57:13;12.40;;;8.80;;
67372;SDS011;54257;54.496;18.412;2023-03-23T03:59:45;11.70;;;7.80;;
67372;SDS011;54257;54.496;18.412;2023-03-23T04:02:21;11.10;;;7.70;;
67372;SDS011;54257;54.496;18.412;2023-03-23T04:04:52;10.00;;;7.30;;
67372;SDS011;54257;54.496;18.412;2023-03-23T04:07:30;9.30;;;7.60;;
67372;SDS011;54257;54.496;18.412;2023-03-23T04:10:06;9.90;;;8.30;;
67372;SDS011;54257;54.496;18.412;2023-03-23T04:12:41;9.10;;;7.10;;
67372;SDS011;54257;54.496;18.412;2023-03-23T04:15:20;12.30;;;7.70;;
67372;SDS011;54257;54.496;18.412;2023-03-23T04:17:49;9.30;;;7.50;;
67372;SDS011;54257;54.496;18.412;2023-03-23T04:20:28;11.70;;;7.80;;
67372;SDS011;54257;54.496;18.412;2023-03-23T04:23:20;12.30;;;9.10;;
67372;SDS011;54257;54.496;18.412;2023-03-23T04:25:52;11.80;;;9.00;;
67372;SDS011;54257;54.496;18.412;2023-03-23T04:28:27;9.90;;;8.10;;
67372;SDS011;54257;54.496;18.412;2023-03-23T04:31:01;10.80;;;7.60;;
67372;SDS011;54257;54.496;18.412;2023-03-23T04:33:33;11.30;;;7.50;;
67372;SDS011;54257;54.496;18.412;2023-03-23T04:36:08;9.90;;;7.40;;
67372;SDS011;54257;54.496;18.412;2023-03-23T04:38:41;10.50;;;7.70;;
67372;SDS011;54257;54.496;18.412;2023-03-23T04:41:23;11.10;;;8.10;;
67372;SDS011;54257;54.496;18.412;2023-03-23T04:43:59;10.90;;;9.20;;
67372;SDS011;54257;54.496;18.412;2023-03-23T04:46:33;11.40;;;8.30;;
67372;SDS011;54257;54.496;18.412;2023-03-23T04:49:05;13.50;;;9.30;;
67372;SDS011;54257;54.496;18.412;2023-03-23T04:51:50;12.90;;;7.90;;
67372;SDS011;54257;54.496;18.412;2023-03-23T04:54:23;12.70;;;8.80;;
67372;SDS011;54257;54.496;18.412;2023-03-23T04:57:18;10.40;;;7.70;;
67372;SDS011;54257;54.496;18.412;2023-03-23T04:59:46;9.70;;;8.70;;
67372;SDS011;54257;54.496;18.412;2023-03-23T05:02:16;11.10;;;7.80;;
67372;SDS011;54257;54.496;18.412;2023-03-23T05:04:50;10.20;;;7.60;;
67372;SDS011;54257;54.496;18.412;2023-03-23T05:07:34;8.30;;;7.60;;
67372;SDS011;54257;54.496;18.412;2023-03-23T05:10:08;7.90;;;7.00;;
67372;SDS011;54257;54.496;18.412;2023-03-23T05:12:49;10.10;;;7.70;;
67372;SDS011;54257;54.496;18.412;2023-03-23T05:15:24;11.80;;;8.60;;
67372;SDS011;54257;54.496;18.412;2023-03-23T05:17:57;8.10;;;6.90;;
67372;SDS011;54257;54.496;18.412;2023-03-23T05:20:33;8.60;;;7.60;;
67372;SDS011;54257;54.496;18.412;2023-03-23T05:23:03;9.80;;;7.70;;
67372;SDS011;54257;54.496;18.412;2023-03-23T05:25:33;12.50;;;8.30;;
67372;SDS011;54257;54.496;18.412;2023-03-23T05:28:10;11.10;;;7.80;;
67372;SDS011;54257;54.496;18.412;2023-03-23T05:30:50;8.50;;;7.60;;
67372;SDS011;54257;54.496;18.412;2023-03-23T05:33:23;10.40;;;8.40;;
67372;SDS011;54257;54.496;18.412;2023-03-23T05:36:06;9.80;;;8.10;;
67372;SDS011;54257;54.496;18.412;2023-03-23T05:38:39;10.30;;;8.00;;
67372;SDS011;54257;54.496;18.412;2023-03-23T05:41:17;8.50;;;7.60;;
67372;SDS011;54257;54.496;18.412;2023-03-23T05:43:45;11.20;;;8.20;;
67372;SDS011;54257;54.496;18.412;2023-03-23T05:46:16;10.50;;;8.10;;
67372;SDS011;54257;54.496;18.412;2023-03-23T05:48:53;10.70;;;8.70;;
67372;SDS011;54257;54.496;18.412;2023-03-23T05:51:30;10.50;;;8.10;;
67372;SDS011;54257;54.496;18.412;2023-03-23T05:53:58;10.80;;;8.20;;
67372;SDS011;54257;54.496;18.412;2023-03-23T05:56:29;12.80;;;7.80;;
67372;SDS011;54257;54.496;18.412;2023-03-23T05:59:04;11.90;;;8.20;;
67372;SDS011;54257;54.496;18.412;2023-03-23T06:01:33;9.60;;;8.10;;
67372;SDS011;54257;54.496;18.412;2023-03-23T06:04:03;9.30;;;7.70;;
67372;SDS011;54257;54.496;18.412;2023-03-23T06:06:32;11.00;;;7.60;;
67372;SDS011;54257;54.496;18.412;2023-03-23T06:14:06;9.70;;;6.80;;
67372;SDS011;54257;54.496;18.412;2023-03-23T06:16:35;12.20;;;8.40;;
67372;SDS011;54257;54.496;18.412;2023-03-23T06:19:04;11.70;;;7.70;;
67372;SDS011;54257;54.496;18.412;2023-03-23T06:21:36;11.90;;;8.70;;
67372;SDS011;54257;54.496;18.412;2023-03-23T06:24:09;12.90;;;9.00;;
67372;SDS011;54257;54.496;18.412;2023-03-23T06:26:44;11.40;;;9.10;;
67372;SDS011;54257;54.496;18.412;2023-03-23T06:29:14;10.90;;;8.70;;
67372;SDS011;54257;54.496;18.412;2023-03-23T06:31:48;9.20;;;8.30;;
67372;SDS011;54257;54.496;18.412;2023-03-23T06:34:21;10.90;;;8.10;;
67372;SDS011;54257;54.496;18.412;2023-03-23T06:36:53;19.70;;;9.00;;
67372;SDS011;54257;54.496;18.412;2023-03-23T06:39:29;9.50;;;7.70;;
67372;SDS011;54257;54.496;18.412;2023-03-23T06:42:00;8.90;;;7.80;;
67372;SDS011;54257;54.496;18.412;2023-03-23T06:44:31;9.60;;;7.20;;
67372;SDS011;54257;54.496;18.412;2023-03-23T06:47:05;11.30;;;6.80;;
67372;SDS011;54257;54.496;18.412;2023-03-23T06:49:37;31.60;;;10.30;;
67372;SDS011;54257;54.496;18.412;2023-03-23T06:52:15;10.90;;;6.60;;
67372;SDS011;54257;54.496;18.412;2023-03-23T06:54:45;6.70;;;5.60;;
67372;SDS011;54257;54.496;18.412;2023-03-23T06:57:27;9.60;;;6.70;;
67372;SDS011;54257;54.496;18.412;2023-03-23T06:59:57;11.50;;;6.60;;
67372;SDS011;54257;54.496;18.412;2023-03-23T07:02:26;8.70;;;5.90;;
67372;SDS011;54257;54.496;18.412;2023-03-23T07:05:13;10.80;;;7.70;;
67372;SDS011;54257;54.496;18.412;2023-03-23T07:07:45;10.20;;;7.00;;
67372;SDS011;54257;54.496;18.412;2023-03-23T07:10:29;8.90;;;6.90;;
67372;SDS011;54257;54.496;18.412;2023-03-23T07:13:03;9.20;;;6.40;;
67372;SDS011;54257;54.496;18.412;2023-03-23T07:15:41;9.00;;;6.80;;
67372;SDS011;54257;54.496;18.412;2023-03-23T07:21:23;11.50;;;9.10;;
67372;SDS011;54257;54.496;18.412;2023-03-23T07:23:57;9.10;;;6.60;;
67372;SDS011;54257;54.496;18.412;2023-03-23T07:26:34;7.80;;;6.10;;
67372;SDS011;54257;54.496;18.412;2023-03-23T07:29:14;9.40;;;6.20;;
67372;SDS011;54257;54.496;18.412;2023-03-23T07:31:43;10.20;;;6.80;;
67372;SDS011;54257;54.496;18.412;2023-03-23T07:34:22;10.70;;;7.80;;
67372;SDS011;54257;54.496;18.412;2023-03-23T07:37:02;9.40;;;7.00;;
67372;SDS011;54257;54.496;18.412;2023-03-23T07:39:40;9.40;;;6.70;;
67372;SDS011;54257;54.496;18.412;2023-03-23T07:42:12;10.20;;;8.10;;
67372;SDS011;54257;54.496;18.412;2023-03-23T07:44:42;10.10;;;8.40;;
67372;SDS011;54257;54.496;18.412;2023-03-23T07:47:11;10.00;;;7.40;;
67372;SDS011;54257;54.496;18.412;2023-03-23T07:49:45;12.60;;;9.50;;
67372;SDS011;54257;54.496;18.412;2023-03-23T07:52:18;10.40;;;7.00;;
67372;SDS011;54257;54.496;18.412;2023-03-23T07:55:02;10.40;;;7.80;;
67372;SDS011;54257;54.496;18.412;2023-03-23T07:57:35;13.20;;;9.30;;
67372;SDS011;54257;54.496;18.412;2023-03-23T08:00:25;12.60;;;9.10;;
67372;SDS011;54257;54.496;18.412;2023-03-23T08:03:21;14.20;;;10.80;;
67372;SDS011;54257;54.496;18.412;2023-03-23T08:06:00;16.70;;;11.40;;
67372;SDS011;54257;54.496;18.412;2023-03-23T08:08:30;17.20;;;10.40;;
67372;SDS011;54257;54.496;18.412;2023-03-23T08:11:03;11.10;;;9.30;;
67372;SDS011;54257;54.496;18.412;2023-03-23T08:13:37;13.40;;;9.60;;
67372;SDS011;54257;54.496;18.412;2023-03-23T08:16:32;10.60;;;8.80;;
67372;SDS011;54257;54.496;18.412;2023-03-23T08:19:17;11.30;;;8.90;;
67372;SDS011;54257;54.496;18.412;2023-03-23T08:21:54;8.80;;;7.60;;
67372;SDS011;54257;54.496;18.412;2023-03-23T08:24:25;9.40;;;8.30;;
67372;SDS011;54257;54.496;18.412;2023-03-23T08:27:01;9.20;;;7.40;;
67372;SDS011;54257;54.496;18.412;2023-03-23T08:29:36;7.60;;;6.40;;
67372;SDS011;54257;54.496;18.412;2023-03-23T08:32:13;7.80;;;7.00;;
67372;SDS011;54257;54.496;18.412;2023-03-23T08:34:55;10.50;;;6.70;;
67372;SDS011;54257;54.496;18.412;2023-03-23T08:37:32;8.10;;;6.70;;
67372;SDS011;54257;54.496;18.412;2023-03-23T08:40:05;7.80;;;6.70;;
67372;SDS011;54257;54.496;18.412;2023-03-23T08:42:43;8.00;;;7.20;;
67372;SDS011;54257;54.496;18.412;2023-03-23T08:45:29;7.60;;;6.60;;
67372;SDS011;54257;54.496;18.412;2023-03-23T08:48:08;9.10;;;6.80;;
67372;SDS011;54257;54.496;18.412;2023-03-23T08:50:39;8.90;;;7.20;;
67372;SDS011;54257;54.496;18.412;2023-03-23T08:53:26;9.20;;;7.00;;
67372;SDS011;54257;54.496;18.412;2023-03-23T08:56:06;9.30;;;7.00;;
67372;SDS011;54257;54.496;18.412;2023-03-23T08:58:47;9.30;;;6.70;;
67372;SDS011;54257;54.496;18.412;2023-03-23T09:01:28;7.40;;;5.00;;
67372;SDS011;54257;54.496;18.412;2023-03-23T09:04:08;8.30;;;5.60;;
67372;SDS011;54257;54.496;18.412;2023-03-23T09:06:40;8.20;;;6.50;;
67372;SDS011;54257;54.496;18.412;2023-03-23T09:09:15;8.50;;;6.40;;
67372;SDS011;54257;54.496;18.412;2023-03-23T09:11:52;11.60;;;7.10;;
67372;SDS011;54257;54.496;18.412;2023-03-23T09:14:36;9.00;;;7.30;;
67372;SDS011;54257;54.496;18.412;2023-03-23T09:17:08;9.40;;;7.40;;
67372;SDS011;54257;54.496;18.412;2023-03-23T09:19:39;9.30;;;7.00;;
67372;SDS011;54257;54.496;18.412;2023-03-23T09:22:13;9.90;;;8.00;;
67372;SDS011;54257;54.496;18.412;2023-03-23T09:24:58;8.40;;;5.60;;
67372;SDS011;54257;54.496;18.412;2023-03-23T09:27:33;6.60;;;5.80;;
67372;SDS011;54257;54.496;18.412;2023-03-23T09:30:15;7.40;;;6.10;;
67372;SDS011;54257;54.496;18.412;2023-03-23T09:32:50;7.70;;;6.00;;
67372;SDS011;54257;54.496;18.412;2023-03-23T09:35:23;7.10;;;5.70;;
67372;SDS011;54257;54.496;18.412;2023-03-23T09:37:55;6.80;;;5.80;;
67372;SDS011;54257;54.496;18.412;2023-03-23T09:40:46;8.90;;;6.50;;
67372;SDS011;54257;54.496;18.412;2023-03-23T09:43:37;6.30;;;4.70;;
67372;SDS011;54257;54.496;18.412;2023-03-23T09:49:11;6.30;;;5.50;;
67372;SDS011;54257;54.496;18.412;2023-03-23T09:52:03;5.90;;;5.10;;
67372;SDS011;54257;54.496;18.412;2023-03-23T09:54:44;6.30;;;5.30;;
67372;SDS011;54257;54.496;18.412;2023-03-23T10:03:07;7.50;;;5.70;;
67372;SDS011;54257;54.496;18.412;2023-03-23T10:08:17;7.00;;;5.50;;
67372;SDS011;54257;54.496;18.412;2023-03-23T10:10:59;7.10;;;5.10;;
67372;SDS011;54257;54.496;18.412;2023-03-23T10:16:39;5.60;;;4.40;;
67372;SDS011;54257;54.496;18.412;2023-03-23T10:22:52;3.50;;;3.10;;
67372;SDS011;54257;54.496;18.412;2023-03-23T10:25:35;4.20;;;3.80;;
67372;SDS011;54257;54.496;18.412;2023-03-23T10:28:11;5.00;;;3.50;;
67372;SDS011;54257;54.496;18.412;2023-03-23T10:30:51;5.20;;;3.80;;
67372;SDS011;54257;54.496;18.412;2023-03-23T10:39:16;3.30;;;3.00;;
67372;SDS011;54257;54.496;18.412;2023-03-23T10:42:21;4.00;;;2.80;;
67372;SDS011;54257;54.496;18.412;2023-03-23T10:44:59;3.80;;;3.40;;
67372;SDS011;54257;54.496;18.412;2023-03-23T10:47:43;5.60;;;3.60;;
67372;SDS011;54257;54.496;18.412;2023-03-23T10:50:51;3.60;;;2.80;;
67372;SDS011;54257;54.496;18.412;2023-03-23T10:53:33;5.00;;;3.40;;
67372;SDS011;54257;54.496;18.412;2023-03-23T10:56:34;3.50;;;3.20;;
67372;SDS011;54257;54.496;18.412;2023-03-23T10:59:26;7.50;;;6.00;;
67372;SDS011;54257;54.496;18.412;2023-03-23T11:02:18;5.40;;;4.70;;
67372;SDS011;54257;54.496;18.412;2023-03-23T11:04:59;4.40;;;4.00;;
67372;SDS011;54257;54.496;18.412;2023-03-23T11:07:33;4.60;;;4.10;;
67372;SDS011;54257;54.496;18.412;2023-03-23T11:10:22;6.90;;;4.80;;
67372;SDS011;54257;54.496;18.412;2023-03-23T11:13:22;5.30;;;3.50;;
67372;SDS011;54257;54.496;18.412;2023-03-23T11:16:10;6.30;;;4.00;;
67372;SDS011;54257;54.496;18.412;2023-03-23T11:18:54;4.00;;;3.30;;
67372;SDS011;54257;54.496;18.412;2023-03-23T11:21:39;4.70;;;4.20;;
67372;SDS011;54257;54.496;18.412;2023-03-23T11:24:21;3.40;;;3.10;;
67372;SDS011;54257;54.496;18.412;2023-03-23T11:26:57;3.30;;;2.80;;
67372;SDS011;54257;54.496;18.412;2023-03-23T11:29:31;2.90;;;2.60;;
67372;SDS011;54257;54.496;18.412;2023-03-23T11:32:04;3.90;;;3.00;;
67372;SDS011;54257;54.496;18.412;2023-03-23T11:35:01;3.90;;;3.50;;
67372;SDS011;54257;54.496;18.412;2023-03-23T11:37:52;3.80;;;2.60;;
67372;SDS011;54257;54.496;18.412;2023-03-23T11:40:30;4.80;;;3.80;;
67372;SDS011;54257;54.496;18.412;2023-03-23T11:43:12;3.20;;;3.00;;
67372;SDS011;54257;54.496;18.412;2023-03-23T11:48:51;3.70;;;2.90;;
67372;SDS011;54257;54.496;18.412;2023-03-23T11:51:31;6.20;;;3.20;;
67372;SDS011;54257;54.496;18.412;2023-03-23T11:57:07;2.70;;;2.50;;
67372;SDS011;54257;54.496;18.412;2023-03-23T11:59:39;2.30;;;2.00;;
67372;SDS011;54257;54.496;18.412;2023-03-23T12:11:00;7.50;;;4.80;;
67372;SDS011;54257;54.496;18.412;2023-03-23T12:14:02;2.20;;;2.00;;
67372;SDS011;54257;54.496;18.412;2023-03-23T12:19:30;5.10;;;3.70;;
67372;SDS011;54257;54.496;18.412;2023-03-23T12:22:53;2.50;;;2.20;;
67372;SDS011;54257;54.496;18.412;2023-03-23T12:25:30;3.70;;;3.00;;
67372;SDS011;54257;54.496;18.412;2023-03-23T12:34:40;4.50;;;3.60;;
67372;SDS011;54257;54.496;18.412;2023-03-23T12:43:02;2.50;;;2.00;;
67372;SDS011;54257;54.496;18.412;2023-03-23T12:46:12;4.70;;;3.90;;
67372;SDS011;54257;54.496;18.412;2023-03-23T12:48:52;2.90;;;2.60;;
67372;SDS011;54257;54.496;18.412;2023-03-23T12:51:51;2.90;;;2.70;;
67372;SDS011;54257;54.496;18.412;2023-03-23T12:57:38;2.70;;;2.20;;
67372;SDS011;54257;54.496;18.412;2023-03-23T13:00:22;3.00;;;2.60;;
67372;SDS011;54257;54.496;18.412;2023-03-23T13:05:49;3.80;;;3.10;;
67372;SDS011;54257;54.496;18.412;2023-03-23T13:08:38;3.80;;;3.40;;
67372;SDS011;54257;54.496;18.412;2023-03-23T13:11:19;2.30;;;2.10;;
67372;SDS011;54257;54.496;18.412;2023-03-23T13:13:56;2.80;;;2.40;;
67372;SDS011;54257;54.496;18.412;2023-03-23T13:19:56;3.30;;;3.00;;
67372;SDS011;54257;54.496;18.412;2023-03-23T13:28:18;3.50;;;3.00;;
67372;SDS011;54257;54.496;18.412;2023-03-23T13:30:53;4.50;;;3.70;;
67372;SDS011;54257;54.496;18.412;2023-03-23T13:33:24;2.60;;;2.40;;
67372;SDS011;54257;54.496;18.412;2023-03-23T13:36:02;3.30;;;3.00;;
67372;SDS011;54257;54.496;18.412;2023-03-23T13:38:49;3.00;;;2.80;;
67372;SDS011;54257;54.496;18.412;2023-03-23T13:41:24;4.30;;;3.00;;
67372;SDS011;54257;54.496;18.412;2023-03-23T13:44:04;6.30;;;4.80;;
67372;SDS011;54257;54.496;18.412;2023-03-23T13:46:53;5.40;;;3.70;;
67372;SDS011;54257;54.496;18.412;2023-03-23T13:49:25;2.60;;;2.30;;
67372;SDS011;54257;54.496;18.412;2023-03-23T13:52:06;4.70;;;4.20;;
67372;SDS011;54257;54.496;18.412;2023-03-23T13:54:50;3.90;;;3.20;;
67372;SDS011;54257;54.496;18.412;2023-03-23T13:57:24;4.30;;;2.80;;
67372;SDS011;54257;54.496;18.412;2023-03-23T14:00:24;3.70;;;3.10;;
67372;SDS011;54257;54.496;18.412;2023-03-23T14:11:09;2.20;;;2.00;;
67372;SDS011;54257;54.496;18.412;2023-03-23T14:18:57;3.30;;;2.60;;
67372;SDS011;54257;54.496;18.412;2023-03-23T14:21:38;2.60;;;2.30;;
67372;SDS011;54257;54.496;18.412;2023-03-23T14:24:10;3.40;;;3.00;;
67372;SDS011;54257;54.496;18.412;2023-03-23T14:26:43;3.30;;;2.70;;
67372;SDS011;54257;54.496;18.412;2023-03-23T14:29:26;4.60;;;3.50;;
67372;SDS011;54257;54.496;18.412;2023-03-23T14:31:57;4.40;;;2.50;;
67372;SDS011;54257;54.496;18.412;2023-03-23T14:34:30;5.30;;;3.20;;
67372;SDS011;54257;54.496;18.412;2023-03-23T14:37:05;3.40;;;2.90;;
67372;SDS011;54257;54.496;18.412;2023-03-23T14:39:47;3.30;;;2.80;;
67372;SDS011;54257;54.496;18.412;2023-03-23T14:42:29;8.20;;;4.90;;
67372;SDS011;54257;54.496;18.412;2023-03-23T14:45:05;5.10;;;3.90;;
67372;SDS011;54257;54.496;18.412;2023-03-23T14:48:00;11.10;;;7.10;;
67372;SDS011;54257;54.496;18.412;2023-03-23T14:53:23;5.80;;;4.20;;
67372;SDS011;54257;54.496;18.412;2023-03-23T14:56:15;6.70;;;4.80;;
67372;SDS011;54257;54.496;18.412;2023-03-23T14:58:51;4.20;;;3.40;;
67372;SDS011;54257;54.496;18.412;2023-03-23T15:01:26;3.80;;;3.40;;
67372;SDS011;54257;54.496;18.412;2023-03-23T15:04:27;4.70;;;3.00;;
67372;SDS011;54257;54.496;18.412;2023-03-23T15:07:02;4.50;;;2.80;;
67372;SDS011;54257;54.496;18.412;2023-03-23T15:09:39;3.70;;;2.70;;
67372;SDS011;54257;54.496;18.412;2023-03-23T15:12:34;4.70;;;2.50;;
67372;SDS011;54257;54.496;18.412;2023-03-23T15:15:16;15.60;;;4.00;;
67372;SDS011;54257;54.496;18.412;2023-03-23T15:17:55;4.60;;;3.30;;
67372;SDS011;54257;54.496;18.412;2023-03-23T15:20:57;3.50;;;3.10;;
67372;SDS011;54257;54.496;18.412;2023-03-23T15:23:48;3.90;;;3.20;;
67372;SDS011;54257;54.496;18.412;2023-03-23T15:26:26;3.70;;;3.30;;
67372;SDS011;54257;54.496;18.412;2023-03-23T15:31:43;4.00;;;3.40;;
67372;SDS011;54257;54.496;18.412;2023-03-23T15:34:29;4.40;;;3.20;;
67372;SDS011;54257;54.496;18.412;2023-03-23T15:37:16;3.20;;;2.60;;
67372;SDS011;54257;54.496;18.412;2023-03-23T15:40:15;4.50;;;3.30;;
67372;SDS011;54257;54.496;18.412;2023-03-23T15:43:05;6.40;;;3.60;;
67372;SDS011;54257;54.496;18.412;2023-03-23T15:45:57;4.80;;;3.10;;
67372;SDS011;54257;54.496;18.412;2023-03-23T15:51:24;3.70;;;2.90;;
67372;SDS011;54257;54.496;18.412;2023-03-23T15:54:01;3.60;;;3.30;;
67372;SDS011;54257;54.496;18.412;2023-03-23T15:56:43;4.30;;;3.80;;
67372;SDS011;54257;54.496;18.412;2023-03-23T15:59:21;6.00;;;4.70;;
67372;SDS011;54257;54.496;18.412;2023-03-23T16:01:55;6.00;;;4.20;;
67372;SDS011;54257;54.496;18.412;2023-03-23T16:04:26;4.90;;;4.00;;
67372;SDS011;54257;54.496;18.412;2023-03-23T16:07:07;5.20;;;3.70;;
67372;SDS011;54257;54.496;18.412;2023-03-23T16:09:44;5.50;;;4.40;;
67372;SDS011;54257;54.496;18.412;2023-03-23T16:12:21;8.30;;;5.60;;
67372;SDS011;54257;54.496;18.412;2023-03-23T16:14:53;5.00;;;3.90;;
67372;SDS011;54257;54.496;18.412;2023-03-23T16:17:28;6.90;;;4.50;;
67372;SDS011;54257;54.496;18.412;2023-03-23T16:20:09;3.10;;;2.20;;
67372;SDS011;54257;54.496;18.412;2023-03-23T16:27:25;3.80;;;1.20;;
67372;SDS011;54257;54.496;18.412;2023-03-23T16:30:47;3.50;;;1.30;;
67372;SDS011;54257;54.496;18.412;2023-03-23T16:34:28;1.00;;;0.80;;
67372;SDS011;54257;54.496;18.412;2023-03-23T16:42:32;1.80;;;1.40;;
67372;SDS011;54257;54.496;18.412;2023-03-23T16:45:19;1.30;;;1.10;;
67372;SDS011;54257;54.496;18.412;2023-03-23T16:48:29;2.00;;;1.40;;
67372;SDS011;54257;54.496;18.412;2023-03-23T16:51:43;3.90;;;2.10;;
67372;SDS011;54257;54.496;18.412;2023-03-23T16:54:52;4.10;;;2.00;;
67372;SDS011;54257;54.496;18.412;2023-03-23T16:57:31;4.10;;;1.70;;
67372;SDS011;54257;54.496;18.412;2023-03-23T17:00:19;2.70;;;1.90;;
67372;SDS011;54257;54.496;18.412;2023-03-23T17:03:06;2.70;;;1.50;;
67372;SDS011;54257;54.496;18.412;2023-03-23T17:05:50;4.10;;;2.50;;
67372;SDS011;54257;54.496;18.412;2023-03-23T17:08:23;4.00;;;2.00;;
67372;SDS011;54257;54.496;18.412;2023-03-23T17:13:55;3.30;;;1.60;;
67372;SDS011;54257;54.496;18.412;2023-03-23T17:16:34;3.10;;;1.80;;
67372;SDS011;54257;54.496;18.412;2023-03-23T17:19:27;2.30;;;1.90;;
67372;SDS011;54257;54.496;18.412;2023-03-23T17:21:58;5.20;;;2.00;;
67372;SDS011;54257;54.496;18.412;2023-03-23T17:24:29;5.20;;;2.60;;
67372;SDS011;54257;54.496;18.412;2023-03-23T17:26:58;3.30;;;2.40;;
67372;SDS011;54257;54.496;18.412;2023-03-23T17:29:32;3.20;;;2.40;;
67372;SDS011;54257;54.496;18.412;2023-03-23T17:32:00;5.40;;;2.50;;
67372;SDS011;54257;54.496;18.412;2023-03-23T17:34:45;3.10;;;2.30;;
67372;SDS011;54257;54.496;18.412;2023-03-23T17:37:19;5.00;;;2.40;;
67372;SDS011;54257;54.496;18.412;2023-03-23T17:39:53;5.20;;;2.90;;
67372;SDS011;54257;54.496;18.412;2023-03-23T17:42:31;3.30;;;2.60;;
67372;SDS011;54257;54.496;18.412;2023-03-23T17:45:14;39.00;;;27.00;;
67372;SDS011;54257;54.496;18.412;2023-03-23T17:47:45;11.20;;;7.70;;